NWS Home NWS Lubbock West Texas Mesonet South Sector Latest Conditions as of 0141 PM, Sat Sep 26, 2020

Latest   N   C   S   Daily Sum   3hrΔ   24hrΔ   Soil Data 
Site Map   24hr Precip   72hr Precip   Google Plot


Station Time of Last Temp Dew Pt. RH Wind Direction Wind Speed Wind Gust Max Wind Max Temp Min Temp Max RH Min RH Altimeter 1HR Rain Today's Rain Solar Rad Red Flag
Andrews 2E  01:35 PM 94 43 18% W26 16 mph 175° @ 0910 AM 94 60 92 18 29.90" 0 0.00 879  
Aspermont 3NE  01:35 PM 87 66 51% S1419 21 mph 201° @ 1050 AM 87 60 92 51 29.84" 0 0.00 834  
Big Bend NP - Castolon  01:35 PM 95 52 24% S46 13 mph 135° @ 1238 AM 95 69 63 24 29.88" 0 0.00 913  
Big Bend NP - Persimmon Gap  01:35 PM 94 52 24% S1216 21 mph 21° @ 1205 AM 94 64 85 23 29.92" 0 0.00 877  
Big Lake 1WNW  01:35 PM 82 65 56% S1620 29 mph 171° @ 0118 PM 82 63 97 55 29.93" 0 0.00 892  
Brownfield 2S  01:35 PM 91 50 25% SW1113 21 mph 205° @ 1011 AM 91 57 90 25 29.88" 0 0.00 865  
Colorado City 5NW  01:35 PM 89 66 48% S1113 23 mph 187° @ 0117 PM 89 61 90 47 29.88" 0 0.00 827  
Coyanosa 2N  01:35 PM 94 50 22% N67 14 mph 136° @ 1223 AM 94 62 88 21 29.89" 0 0.00 906  
Crane 1NNW   01:35 PM 90 60 36% S1215 21 mph 182° @ 1057 AM 90 70 72 35 29.89" 0 0.00 889  
Dell City  01:35 PM 87 45 23% SE34 13 mph 292° @ 0155 AM 87 53 59 21 29.99" 0 0.00 862  
Denver City 7WNW  01:35 PM 98 31 9% W1522 22 mph 290° @ 0135 PM 98 56 94 9 29.90" 0 0.00 921  
Doole 3WNW  01:35 PM 88 65 46% S1418 29 mph 202° @ 0854 AM 89 66 89 46 29.89" 0 0.00 889  
Fluvanna 3WNW  01:35 PM 88 60 40% S1419 21 mph 191° @ 1005 AM 88 65 80 40 29.88" 0 0.00 807  
Fort Chadbourne  01:35 PM 86 68 55% SW1014 23 mph 186° @ 1247 PM 86 57 98 55 29.89" 0 0.00 658  
Fort Lancaster  01:35 PM 84 68 59% S1618 25 mph 139° @ 1223 PM 84 68 98 59 29.91" 0 0.00 859  
Fort McKavett  01:35 PM 83 66 58% S1217 24 mph 179° @ 1005 AM 83 65 98 57 29.94" 0 0.00 872  
Gail 2ESE  01:35 PM 90 57 35% S1319 22 mph 187° @ 0125 PM 90 56 90 35 29.86" 0 0.00 829  
Graham 5SSW  01:35 PM 89 55 33% S1523 28 mph 183° @ 0105 AM 89 66 79 33 29.87" 0 0.00 870  
Guadalupe Mtns Natl Park  01:35 PM 90 29 11% S812 25 mph 203° @ 1258 PM 90 70 24 11 30.10" 0 0.00 847  
Haskell 1NW  01:35 PM 85 65 54% S1319 24 mph 185° @ 0125 PM 85 62 88 54 29.85" 0 0.00 813  
Hobbs NM 5NW  01:35 PM 97 28 9% W1113 18 mph 187° @ 0124 AM 97 58 93 9 29.94" 0 0.00 901  
Jayton 1SSE  01:35 PM 90 62 41% S1118 22 mph 181° @ 0130 PM 91 64 85 40 29.84" 0 0.00 838  
Junction 1SSW  01:35 PM 83 67 59% SW1417 24 mph 186° @ 1136 AM 83 57 100 58 29.94" 0 0.00 778  
Kent 9E  01:35 PM 93 38 14% SW79 26 mph 235° @ 1011 AM 94 69 37 14 30.00" 0 0.00 907  
Lake Alan Henry 1NW  01:35 PM 91 59 34% S1517 21 mph 206° @ 0511 AM 91 69 73 34 29.85" 0 0.00 827  
Lamesa 2SE  01:35 PM 90 55 31% S1118 18 mph 192° @ 0125 PM 90 61 89 31 29.89" 0 0.00 869  
Lomax 1SSE  01:35 PM 87 63 45% S1416 22 mph 181° @ 1136 AM 87 64 86 44 29.89" 0 0.00 881  
McCamey 1SSW  01:35 PM 88 63 43% SE1518 22 mph 130° @ 1040 AM 88 68 82 43 29.90" 0 0.00 778  
Menard 2NW   01:35 PM 82 67 60% S1520 26 mph 172° @ 1249 PM 83 61 100 59 29.93" 0 0.00 816  
Mertzon 3NNE  01:35 PM 84 67 56% S1520 27 mph 182° @ 1104 AM 85 62 100 55 29.91" 0 0.00 816  
New Home  01:35 PM 91 52 26% S1415 20 mph 212° @ 0954 AM 91 61 91 26 29.89" 0 0.00 866  
O'Donnell 1N  01:35 PM 89 56 34% S1014 19 mph 185° @ 0915 AM 90 64 84 33 29.88" 0 0.00 787  
Plains 3N  01:35 PM 97 30 9% W1725 26 mph 293° @ 0110 PM 97 58 88 9 29.90" 0 0.00 900  
Post 1NE  01:35 PM 92 54 29% S1219 25 mph 194° @ 0905 AM 92 68 72 29 29.85" 0 0.00 862  
Rotan 5W  01:35 PM 88 66 48% S1014 26 mph 188° @ 1022 AM 88 65 83 47 29.87" 0 0.00 837  
San Angelo 7NW  01:35 PM 85 65 54% S1623 28 mph 175° @ 0130 PM 86 62 94 53 29.90" 0 0.00 827  
Seagraves 1SW  01:35 PM 92 50 24% S611 14 mph 201° @ 1010 AM 92 52 83 24 29.89" 0 0.00 816  
Segovia 7SSW  01:35 PM 81 65 59% S1621 23 mph 148° @ 1024 AM 83 65 96 57 29.97" 0 0.00 959  
Seminole 2NNE  01:35 PM 93 48 23% SW59 12 mph 206° @ 0945 AM 93 57 89 23 29.89" 0 0.00 874  
Sierra Blanca 1SSE  01:35 PM 91 36 14% NW1012 22 mph 326° @ 1235 PM 91 64 26 14 30.07" 0 0.00 819  
Snyder 3E  01:35 PM 88 63 47% S1419 25 mph 180° @ 1240 PM 88 63 87 47 29.88" 0 0.00 791  
Snyder 3SSW  01:35 PM 86 66 51% S1823 24 mph 172° @ 0133 PM 87 63 88 51 29.88" 0 0.00 837  
St. Lawrence 5SW  01:35 PM 85 63 49% S1924 26 mph 179° @ 1210 PM 85 62 90 49 29.91" 0 0.00 866  
Stamford 5ESE  01:35 PM 85 67 56% S2123 27 mph 183° @ 1120 AM 85 62 90 55 29.86" 0 0.00 853  
Sterling City 4WSW  01:35 PM 87 65 48% S1317 23 mph 165° @ 1102 AM 87 59 100 47 29.91" 0 0.00 717  
Sundown 8WSW  01:35 PM 99 23 7% NW1621 24 mph 306° @ 0130 PM 99 53 88 7 29.88" 0 0.00 795  
Sweetwater 11SW   01:35 PM 83 65 55% S2225 27 mph 167° @ 1238 PM 84 65 87 53 29.91" 0 0.00 926  
Tahoka 3NNE  01:35 PM 91 55 30% S1417 22 mph 210° @ 0940 AM 92 62 86 29 29.88" 0 0.00 843  
Tarzan 2WNW  01:35 PM 92 56 31% S1014 20 mph 181° @ 1033 AM 92 63 86 31 29.89" 0 0.00 870  
Tatum NM 2SW  01:35 PM 95 28 9% W2026 29 mph 293° @ 1135 AM 95 57 82 9 29.94" 0 0.00 875 65
Throckmorton 1SW  01:35 PM 87 68 53% S1014 21 mph 187° @ 1143 AM 87 64 93 53 29.85" 0 0.00 856  
Van Horn 3ENE  01:35 PM 95 36 13% W710 23 mph 267° @ 1255 PM 95 63 57 13 30.00" 0 0.00 921  
Wall 2E  01:35 PM 86 67 55% S1721 26 mph 179° @ 1228 PM 86 66 93 53 29.91" 0 0.00 861  
Weinert 2NNE  01:35 PM 85 66 52% S1719 24 mph 187° @ 1242 PM 86 64 81 50 29.84" 0 0.00 795  
Welch  01:35 PM 91 52 26% S1113 16 mph 199° @ 0946 AM 92 59 100 23 29.89" 0 0.00 837  

West Texas Mesonet Home   Site Map/Menu  NWS Lubbock Soil Data  Daily Summary Page  24hr Precip  72hr Precip  Google Plot